sensor_id;sensor_type;location;lat;lon;timestamp;P1;durP1;ratioP1;P2;durP2;ratioP2
67696;SDS011;54486;51.442;6.778;2023-11-21T00:01:33;18.30;;;8.32;;
67696;SDS011;54486;51.442;6.778;2023-11-21T00:04:00;17.20;;;7.70;;
67696;SDS011;54486;51.442;6.778;2023-11-21T00:06:28;16.75;;;7.53;;
67696;SDS011;54486;51.442;6.778;2023-11-21T00:08:56;18.23;;;8.00;;
67696;SDS011;54486;51.442;6.778;2023-11-21T00:11:24;16.13;;;7.50;;
67696;SDS011;54486;51.442;6.778;2023-11-21T00:13:52;16.77;;;7.93;;
67696;SDS011;54486;51.442;6.778;2023-11-21T00:16:19;16.63;;;7.22;;
67696;SDS011;54486;51.442;6.778;2023-11-21T00:18:46;16.98;;;7.25;;
67696;SDS011;54486;51.442;6.778;2023-11-21T00:21:15;16.80;;;7.00;;
67696;SDS011;54486;51.442;6.778;2023-11-21T00:23:42;18.23;;;7.10;;
67696;SDS011;54486;51.442;6.778;2023-11-21T00:26:10;19.42;;;7.65;;
67696;SDS011;54486;51.442;6.778;2023-11-21T00:28:37;16.17;;;7.13;;
67696;SDS011;54486;51.442;6.778;2023-11-21T00:31:06;19.67;;;7.63;;
67696;SDS011;54486;51.442;6.778;2023-11-21T00:33:34;17.17;;;7.63;;
67696;SDS011;54486;51.442;6.778;2023-11-21T00:36:01;19.42;;;8.07;;
67696;SDS011;54486;51.442;6.778;2023-11-21T00:38:29;17.17;;;8.02;;
67696;SDS011;54486;51.442;6.778;2023-11-21T00:40:59;18.02;;;7.55;;
67696;SDS011;54486;51.442;6.778;2023-11-21T00:43:26;18.25;;;8.93;;
67696;SDS011;54486;51.442;6.778;2023-11-21T00:45:53;18.05;;;8.23;;
67696;SDS011;54486;51.442;6.778;2023-11-21T00:48:20;20.70;;;9.02;;
67696;SDS011;54486;51.442;6.778;2023-11-21T00:50:48;21.00;;;8.73;;
67696;SDS011;54486;51.442;6.778;2023-11-21T00:53:15;16.70;;;8.57;;
67696;SDS011;54486;51.442;6.778;2023-11-21T00:55:43;18.40;;;8.20;;
67696;SDS011;54486;51.442;6.778;2023-11-21T00:58:11;18.60;;;8.93;;
67696;SDS011;54486;51.442;6.778;2023-11-21T01:00:39;19.30;;;8.45;;
67696;SDS011;54486;51.442;6.778;2023-11-21T01:03:06;18.58;;;8.02;;
67696;SDS011;54486;51.442;6.778;2023-11-21T01:05:35;19.10;;;8.15;;
67696;SDS011;54486;51.442;6.778;2023-11-21T01:08:02;19.63;;;8.60;;
67696;SDS011;54486;51.442;6.778;2023-11-21T01:10:30;16.98;;;8.30;;
67696;SDS011;54486;51.442;6.778;2023-11-21T01:12:57;18.98;;;8.13;;
67696;SDS011;54486;51.442;6.778;2023-11-21T01:15:24;18.77;;;7.88;;
67696;SDS011;54486;51.442;6.778;2023-11-21T01:17:52;18.95;;;8.60;;
67696;SDS011;54486;51.442;6.778;2023-11-21T01:20:19;18.05;;;8.75;;
67696;SDS011;54486;51.442;6.778;2023-11-21T01:22:47;17.08;;;9.13;;
67696;SDS011;54486;51.442;6.778;2023-11-21T01:25:15;18.83;;;8.27;;
67696;SDS011;54486;51.442;6.778;2023-11-21T01:27:43;18.93;;;9.37;;
67696;SDS011;54486;51.442;6.778;2023-11-21T01:30:10;20.95;;;8.95;;
67696;SDS011;54486;51.442;6.778;2023-11-21T01:32:38;20.02;;;9.35;;
67696;SDS011;54486;51.442;6.778;2023-11-21T01:35:06;20.58;;;10.10;;
67696;SDS011;54486;51.442;6.778;2023-11-21T01:37:34;20.48;;;9.90;;
67696;SDS011;54486;51.442;6.778;2023-11-21T01:40:01;19.45;;;9.25;;
67696;SDS011;54486;51.442;6.778;2023-11-21T01:42:29;21.80;;;10.07;;
67696;SDS011;54486;51.442;6.778;2023-11-21T01:44:56;21.63;;;9.70;;
67696;SDS011;54486;51.442;6.778;2023-11-21T01:47:23;19.47;;;8.77;;
67696;SDS011;54486;51.442;6.778;2023-11-21T01:49:50;22.83;;;9.90;;
67696;SDS011;54486;51.442;6.778;2023-11-21T01:52:19;26.02;;;11.02;;
67696;SDS011;54486;51.442;6.778;2023-11-21T01:54:47;20.05;;;9.57;;
67696;SDS011;54486;51.442;6.778;2023-11-21T01:57:15;21.08;;;9.73;;
67696;SDS011;54486;51.442;6.778;2023-11-21T01:59:42;24.15;;;9.45;;
67696;SDS011;54486;51.442;6.778;2023-11-21T02:02:11;20.33;;;9.60;;
67696;SDS011;54486;51.442;6.778;2023-11-21T02:04:38;20.95;;;8.95;;
67696;SDS011;54486;51.442;6.778;2023-11-21T02:07:05;21.50;;;9.93;;
67696;SDS011;54486;51.442;6.778;2023-11-21T02:09:32;21.65;;;9.55;;
67696;SDS011;54486;51.442;6.778;2023-11-21T02:12:00;21.27;;;9.73;;
67696;SDS011;54486;51.442;6.778;2023-11-21T02:14:29;21.77;;;9.68;;
67696;SDS011;54486;51.442;6.778;2023-11-21T02:16:57;26.63;;;11.82;;
67696;SDS011;54486;51.442;6.778;2023-11-21T02:19:24;24.73;;;11.15;;
67696;SDS011;54486;51.442;6.778;2023-11-21T02:21:56;23.15;;;11.27;;
67696;SDS011;54486;51.442;6.778;2023-11-21T02:24:28;23.05;;;11.05;;
67696;SDS011;54486;51.442;6.778;2023-11-21T02:26:56;26.77;;;11.75;;
67696;SDS011;54486;51.442;6.778;2023-11-21T02:29:24;26.40;;;11.27;;
67696;SDS011;54486;51.442;6.778;2023-11-21T02:31:55;23.83;;;11.43;;
67696;SDS011;54486;51.442;6.778;2023-11-21T02:34:22;23.02;;;10.77;;
67696;SDS011;54486;51.442;6.778;2023-11-21T02:36:52;26.50;;;11.27;;
67696;SDS011;54486;51.442;6.778;2023-11-21T02:39:21;25.00;;;11.27;;
67696;SDS011;54486;51.442;6.778;2023-11-21T02:41:51;24.70;;;11.45;;
67696;SDS011;54486;51.442;6.778;2023-11-21T02:44:18;24.88;;;11.73;;
67696;SDS011;54486;51.442;6.778;2023-11-21T02:46:45;26.13;;;11.37;;
67696;SDS011;54486;51.442;6.778;2023-11-21T02:49:14;25.87;;;11.57;;
67696;SDS011;54486;51.442;6.778;2023-11-21T02:51:41;22.38;;;11.10;;
67696;SDS011;54486;51.442;6.778;2023-11-21T02:54:08;26.25;;;11.40;;
67696;SDS011;54486;51.442;6.778;2023-11-21T02:56:35;25.77;;;12.40;;
67696;SDS011;54486;51.442;6.778;2023-11-21T02:59:02;26.08;;;12.15;;
67696;SDS011;54486;51.442;6.778;2023-11-21T03:01:30;29.20;;;13.38;;
67696;SDS011;54486;51.442;6.778;2023-11-21T03:03:58;25.75;;;11.57;;
67696;SDS011;54486;51.442;6.778;2023-11-21T03:06:25;25.98;;;12.07;;
67696;SDS011;54486;51.442;6.778;2023-11-21T03:08:53;26.90;;;12.13;;
67696;SDS011;54486;51.442;6.778;2023-11-21T03:11:20;27.98;;;12.85;;
67696;SDS011;54486;51.442;6.778;2023-11-21T03:13:47;28.77;;;12.27;;
67696;SDS011;54486;51.442;6.778;2023-11-21T03:16:15;27.90;;;12.45;;
67696;SDS011;54486;51.442;6.778;2023-11-21T03:18:43;27.40;;;13.02;;
67696;SDS011;54486;51.442;6.778;2023-11-21T03:21:11;27.38;;;11.95;;
67696;SDS011;54486;51.442;6.778;2023-11-21T03:23:38;24.35;;;12.45;;
67696;SDS011;54486;51.442;6.778;2023-11-21T03:26:11;29.37;;;12.87;;
67696;SDS011;54486;51.442;6.778;2023-11-21T03:28:39;26.85;;;12.02;;
67696;SDS011;54486;51.442;6.778;2023-11-21T03:31:07;27.90;;;12.73;;
67696;SDS011;54486;51.442;6.778;2023-11-21T03:33:35;28.70;;;12.88;;
67696;SDS011;54486;51.442;6.778;2023-11-21T03:36:02;26.83;;;13.07;;
67696;SDS011;54486;51.442;6.778;2023-11-21T03:38:30;27.40;;;12.73;;
67696;SDS011;54486;51.442;6.778;2023-11-21T03:40:58;30.83;;;13.73;;
67696;SDS011;54486;51.442;6.778;2023-11-21T03:43:25;29.98;;;12.82;;
67696;SDS011;54486;51.442;6.778;2023-11-21T03:45:52;30.15;;;13.63;;
67696;SDS011;54486;51.442;6.778;2023-11-21T03:48:20;27.47;;;14.43;;
67696;SDS011;54486;51.442;6.778;2023-11-21T03:50:47;28.17;;;13.73;;
67696;SDS011;54486;51.442;6.778;2023-11-21T03:53:14;28.10;;;13.37;;
67696;SDS011;54486;51.442;6.778;2023-11-21T03:55:40;26.92;;;13.43;;
67696;SDS011;54486;51.442;6.778;2023-11-21T03:58:08;31.15;;;13.38;;
67696;SDS011;54486;51.442;6.778;2023-11-21T04:00:35;29.75;;;13.75;;
67696;SDS011;54486;51.442;6.778;2023-11-21T04:03:02;28.00;;;13.70;;
67696;SDS011;54486;51.442;6.778;2023-11-21T04:05:30;26.17;;;12.50;;
67696;SDS011;54486;51.442;6.778;2023-11-21T04:07:58;27.90;;;13.05;;
67696;SDS011;54486;51.442;6.778;2023-11-21T04:10:26;28.92;;;14.05;;
67696;SDS011;54486;51.442;6.778;2023-11-21T04:12:53;29.02;;;13.52;;
67696;SDS011;54486;51.442;6.778;2023-11-21T04:15:20;26.17;;;12.68;;
67696;SDS011;54486;51.442;6.778;2023-11-21T04:17:47;30.57;;;12.73;;
67696;SDS011;54486;51.442;6.778;2023-11-21T04:20:15;30.05;;;13.48;;
67696;SDS011;54486;51.442;6.778;2023-11-21T04:22:42;30.42;;;13.85;;
67696;SDS011;54486;51.442;6.778;2023-11-21T04:25:12;31.53;;;14.27;;
67696;SDS011;54486;51.442;6.778;2023-11-21T04:27:41;33.05;;;13.82;;
67696;SDS011;54486;51.442;6.778;2023-11-21T04:30:12;30.30;;;13.20;;
67696;SDS011;54486;51.442;6.778;2023-11-21T04:32:41;31.52;;;14.05;;
67696;SDS011;54486;51.442;6.778;2023-11-21T04:35:11;30.67;;;13.88;;
67696;SDS011;54486;51.442;6.778;2023-11-21T04:37:38;30.07;;;13.83;;
67696;SDS011;54486;51.442;6.778;2023-11-21T04:40:06;30.15;;;13.25;;
67696;SDS011;54486;51.442;6.778;2023-11-21T04:42:34;31.35;;;14.00;;
67696;SDS011;54486;51.442;6.778;2023-11-21T04:45:04;33.65;;;13.63;;
67696;SDS011;54486;51.442;6.778;2023-11-21T04:47:35;33.90;;;14.07;;
67696;SDS011;54486;51.442;6.778;2023-11-21T04:50:03;38.85;;;15.43;;
67696;SDS011;54486;51.442;6.778;2023-11-21T04:52:31;34.72;;;15.07;;
67696;SDS011;54486;51.442;6.778;2023-11-21T04:55:00;35.80;;;15.15;;
67696;SDS011;54486;51.442;6.778;2023-11-21T04:57:28;34.55;;;15.82;;
67696;SDS011;54486;51.442;6.778;2023-11-21T04:59:56;35.20;;;15.45;;
67696;SDS011;54486;51.442;6.778;2023-11-21T05:02:23;37.63;;;15.80;;
67696;SDS011;54486;51.442;6.778;2023-11-21T05:05:01;37.25;;;16.58;;
67696;SDS011;54486;51.442;6.778;2023-11-21T05:07:29;36.83;;;15.43;;
67696;SDS011;54486;51.442;6.778;2023-11-21T05:09:58;37.67;;;15.53;;
67696;SDS011;54486;51.442;6.778;2023-11-21T05:12:25;36.25;;;15.23;;
67696;SDS011;54486;51.442;6.778;2023-11-21T05:14:52;37.95;;;15.82;;
67696;SDS011;54486;51.442;6.778;2023-11-21T05:17:19;39.28;;;15.02;;
67696;SDS011;54486;51.442;6.778;2023-11-21T05:19:47;37.55;;;15.65;;
67696;SDS011;54486;51.442;6.778;2023-11-21T05:22:16;36.30;;;15.63;;
67696;SDS011;54486;51.442;6.778;2023-11-21T05:24:43;37.00;;;15.63;;
67696;SDS011;54486;51.442;6.778;2023-11-21T05:27:10;39.93;;;17.10;;
67696;SDS011;54486;51.442;6.778;2023-11-21T05:29:38;40.95;;;16.48;;
67696;SDS011;54486;51.442;6.778;2023-11-21T05:32:05;37.33;;;16.42;;
67696;SDS011;54486;51.442;6.778;2023-11-21T05:34:32;38.88;;;15.88;;
67696;SDS011;54486;51.442;6.778;2023-11-21T05:36:59;41.15;;;16.98;;
67696;SDS011;54486;51.442;6.778;2023-11-21T05:39:26;40.10;;;16.67;;
67696;SDS011;54486;51.442;6.778;2023-11-21T05:41:55;39.47;;;16.15;;
67696;SDS011;54486;51.442;6.778;2023-11-21T05:44:24;41.97;;;16.75;;
67696;SDS011;54486;51.442;6.778;2023-11-21T05:46:51;39.13;;;15.85;;
67696;SDS011;54486;51.442;6.778;2023-11-21T05:49:19;42.45;;;16.52;;
67696;SDS011;54486;51.442;6.778;2023-11-21T05:51:48;42.88;;;17.00;;
67696;SDS011;54486;51.442;6.778;2023-11-21T05:54:16;37.33;;;16.70;;
67696;SDS011;54486;51.442;6.778;2023-11-21T05:56:43;41.25;;;17.65;;
67696;SDS011;54486;51.442;6.778;2023-11-21T05:59:11;42.50;;;17.23;;
67696;SDS011;54486;51.442;6.778;2023-11-21T06:01:38;42.85;;;17.02;;
67696;SDS011;54486;51.442;6.778;2023-11-21T06:04:05;42.17;;;16.88;;
67696;SDS011;54486;51.442;6.778;2023-11-21T06:06:32;41.63;;;16.58;;
67696;SDS011;54486;51.442;6.778;2023-11-21T06:08:59;40.20;;;16.55;;
67696;SDS011;54486;51.442;6.778;2023-11-21T06:11:26;40.63;;;17.63;;
67696;SDS011;54486;51.442;6.778;2023-11-21T06:13:54;44.45;;;17.10;;
67696;SDS011;54486;51.442;6.778;2023-11-21T06:16:21;41.37;;;17.20;;
67696;SDS011;54486;51.442;6.778;2023-11-21T06:18:48;43.35;;;17.77;;
67696;SDS011;54486;51.442;6.778;2023-11-21T06:21:15;42.90;;;17.05;;
67696;SDS011;54486;51.442;6.778;2023-11-21T06:23:43;45.42;;;17.60;;
67696;SDS011;54486;51.442;6.778;2023-11-21T06:26:10;48.13;;;17.98;;
67696;SDS011;54486;51.442;6.778;2023-11-21T06:28:38;51.08;;;18.75;;
67696;SDS011;54486;51.442;6.778;2023-11-21T06:31:05;49.63;;;18.37;;
67696;SDS011;54486;51.442;6.778;2023-11-21T06:33:32;49.80;;;18.67;;
67696;SDS011;54486;51.442;6.778;2023-11-21T06:36:00;49.70;;;18.85;;
67696;SDS011;54486;51.442;6.778;2023-11-21T06:38:29;50.65;;;18.70;;
67696;SDS011;54486;51.442;6.778;2023-11-21T06:40:56;50.08;;;18.83;;
67696;SDS011;54486;51.442;6.778;2023-11-21T06:43:24;55.83;;;19.98;;
67696;SDS011;54486;51.442;6.778;2023-11-21T06:45:52;52.65;;;18.52;;
67696;SDS011;54486;51.442;6.778;2023-11-21T06:48:19;49.30;;;18.30;;
67696;SDS011;54486;51.442;6.778;2023-11-21T06:50:47;56.25;;;19.50;;
67696;SDS011;54486;51.442;6.778;2023-11-21T06:53:15;54.72;;;19.15;;
67696;SDS011;54486;51.442;6.778;2023-11-21T06:55:42;54.80;;;20.08;;
67696;SDS011;54486;51.442;6.778;2023-11-21T06:58:08;52.80;;;19.50;;
67696;SDS011;54486;51.442;6.778;2023-11-21T07:00:35;55.25;;;19.55;;
67696;SDS011;54486;51.442;6.778;2023-11-21T07:03:02;54.67;;;19.20;;
67696;SDS011;54486;51.442;6.778;2023-11-21T07:05:30;55.78;;;19.75;;
67696;SDS011;54486;51.442;6.778;2023-11-21T07:07:57;59.65;;;21.48;;
67696;SDS011;54486;51.442;6.778;2023-11-21T07:10:32;56.93;;;20.20;;
67696;SDS011;54486;51.442;6.778;2023-11-21T07:12:59;56.08;;;20.45;;
67696;SDS011;54486;51.442;6.778;2023-11-21T07:15:26;60.97;;;20.98;;
67696;SDS011;54486;51.442;6.778;2023-11-21T07:17:53;60.43;;;20.87;;
67696;SDS011;54486;51.442;6.778;2023-11-21T07:20:21;66.82;;;21.23;;
67696;SDS011;54486;51.442;6.778;2023-11-21T07:22:48;61.10;;;20.85;;
67696;SDS011;54486;51.442;6.778;2023-11-21T07:25:16;64.32;;;20.48;;
67696;SDS011;54486;51.442;6.778;2023-11-21T07:27:43;57.80;;;19.83;;
67696;SDS011;54486;51.442;6.778;2023-11-21T07:30:11;63.75;;;21.23;;
67696;SDS011;54486;51.442;6.778;2023-11-21T07:32:39;61.92;;;21.10;;
67696;SDS011;54486;51.442;6.778;2023-11-21T07:35:08;61.75;;;20.70;;
67696;SDS011;54486;51.442;6.778;2023-11-21T07:37:36;55.20;;;20.63;;
67696;SDS011;54486;51.442;6.778;2023-11-21T07:40:03;57.25;;;19.67;;
67696;SDS011;54486;51.442;6.778;2023-11-21T07:42:31;58.30;;;20.70;;
67696;SDS011;54486;51.442;6.778;2023-11-21T07:44:58;56.20;;;19.58;;
67696;SDS011;54486;51.442;6.778;2023-11-21T07:47:25;53.50;;;19.77;;
67696;SDS011;54486;51.442;6.778;2023-11-21T07:49:54;57.22;;;19.70;;
67696;SDS011;54486;51.442;6.778;2023-11-21T07:52:23;51.67;;;18.80;;
67696;SDS011;54486;51.442;6.778;2023-11-21T07:54:50;50.22;;;20.00;;
67696;SDS011;54486;51.442;6.778;2023-11-21T07:57:18;53.38;;;18.95;;
67696;SDS011;54486;51.442;6.778;2023-11-21T07:59:45;55.83;;;20.00;;
67696;SDS011;54486;51.442;6.778;2023-11-21T08:02:12;53.45;;;19.85;;
67696;SDS011;54486;51.442;6.778;2023-11-21T08:04:39;54.47;;;20.23;;
67696;SDS011;54486;51.442;6.778;2023-11-21T08:07:06;51.22;;;18.83;;
67696;SDS011;54486;51.442;6.778;2023-11-21T08:09:33;54.95;;;20.75;;
67696;SDS011;54486;51.442;6.778;2023-11-21T08:12:01;52.53;;;19.60;;
67696;SDS011;54486;51.442;6.778;2023-11-21T08:14:29;57.58;;;20.45;;
67696;SDS011;54486;51.442;6.778;2023-11-21T08:16:56;52.83;;;19.90;;
67696;SDS011;54486;51.442;6.778;2023-11-21T08:19:24;50.30;;;18.13;;
67696;SDS011;54486;51.442;6.778;2023-11-21T08:21:52;51.33;;;19.20;;
67696;SDS011;54486;51.442;6.778;2023-11-21T08:24:21;50.40;;;17.70;;
67696;SDS011;54486;51.442;6.778;2023-11-21T08:26:49;47.40;;;18.88;;
67696;SDS011;54486;51.442;6.778;2023-11-21T08:29:16;48.93;;;19.83;;
67696;SDS011;54486;51.442;6.778;2023-11-21T08:31:44;51.60;;;19.80;;
67696;SDS011;54486;51.442;6.778;2023-11-21T08:34:13;52.90;;;19.90;;
67696;SDS011;54486;51.442;6.778;2023-11-21T08:36:42;48.30;;;18.27;;
67696;SDS011;54486;51.442;6.778;2023-11-21T08:39:09;51.33;;;19.00;;
67696;SDS011;54486;51.442;6.778;2023-11-21T08:41:36;48.33;;;18.63;;
67696;SDS011;54486;51.442;6.778;2023-11-21T08:44:03;46.38;;;18.77;;
67696;SDS011;54486;51.442;6.778;2023-11-21T08:46:34;52.05;;;18.75;;
67696;SDS011;54486;51.442;6.778;2023-11-21T08:49:04;46.97;;;19.35;;
67696;SDS011;54486;51.442;6.778;2023-11-21T08:51:32;48.40;;;18.85;;
67696;SDS011;54486;51.442;6.778;2023-11-21T08:53:59;51.63;;;19.08;;
67696;SDS011;54486;51.442;6.778;2023-11-21T08:56:31;49.30;;;19.15;;
67696;SDS011;54486;51.442;6.778;2023-11-21T08:58:58;44.15;;;17.60;;
67696;SDS011;54486;51.442;6.778;2023-11-21T09:01:27;45.43;;;18.03;;
67696;SDS011;54486;51.442;6.778;2023-11-21T09:03:55;46.80;;;18.48;;
67696;SDS011;54486;51.442;6.778;2023-11-21T09:06:22;45.97;;;18.02;;
67696;SDS011;54486;51.442;6.778;2023-11-21T09:08:49;50.47;;;19.23;;
67696;SDS011;54486;51.442;6.778;2023-11-21T09:11:18;46.42;;;18.35;;
67696;SDS011;54486;51.442;6.778;2023-11-21T09:13:46;48.63;;;19.23;;
67696;SDS011;54486;51.442;6.778;2023-11-21T09:16:14;50.20;;;19.67;;
67696;SDS011;54486;51.442;6.778;2023-11-21T09:18:42;46.73;;;18.10;;
67696;SDS011;54486;51.442;6.778;2023-11-21T09:21:09;53.97;;;18.98;;
67696;SDS011;54486;51.442;6.778;2023-11-21T09:23:36;52.35;;;20.13;;
67696;SDS011;54486;51.442;6.778;2023-11-21T09:26:03;53.42;;;20.40;;
67696;SDS011;54486;51.442;6.778;2023-11-21T09:28:32;50.30;;;20.02;;
67696;SDS011;54486;51.442;6.778;2023-11-21T09:30:59;58.58;;;20.50;;
67696;SDS011;54486;51.442;6.778;2023-11-21T09:33:26;58.33;;;20.83;;
67696;SDS011;54486;51.442;6.778;2023-11-21T09:35:53;62.53;;;23.17;;
67696;SDS011;54486;51.442;6.778;2023-11-21T09:38:20;60.72;;;22.92;;
67696;SDS011;54486;51.442;6.778;2023-11-21T09:40:48;54.90;;;21.73;;
67696;SDS011;54486;51.442;6.778;2023-11-21T09:43:17;63.42;;;22.95;;
67696;SDS011;54486;51.442;6.778;2023-11-21T09:45:46;60.83;;;21.58;;
67696;SDS011;54486;51.442;6.778;2023-11-21T09:48:18;61.83;;;24.02;;
67696;SDS011;54486;51.442;6.778;2023-11-21T09:50:46;66.97;;;24.30;;
67696;SDS011;54486;51.442;6.778;2023-11-21T09:53:18;73.13;;;25.53;;
67696;SDS011;54486;51.442;6.778;2023-11-21T09:55:52;67.50;;;23.70;;
67696;SDS011;54486;51.442;6.778;2023-11-21T09:58:20;62.17;;;23.35;;
67696;SDS011;54486;51.442;6.778;2023-11-21T10:00:55;66.60;;;25.85;;
67696;SDS011;54486;51.442;6.778;2023-11-21T10:03:26;75.68;;;26.63;;
67696;SDS011;54486;51.442;6.778;2023-11-21T10:05:54;61.40;;;24.15;;
67696;SDS011;54486;51.442;6.778;2023-11-21T10:08:26;62.38;;;23.83;;
67696;SDS011;54486;51.442;6.778;2023-11-21T10:11:12;67.80;;;25.27;;
67696;SDS011;54486;51.442;6.778;2023-11-21T10:13:41;71.57;;;26.58;;
67696;SDS011;54486;51.442;6.778;2023-11-21T10:16:10;70.32;;;27.33;;
67696;SDS011;54486;51.442;6.778;2023-11-21T10:18:43;68.00;;;25.48;;
67696;SDS011;54486;51.442;6.778;2023-11-21T10:21:11;70.72;;;25.38;;
67696;SDS011;54486;51.442;6.778;2023-11-21T10:23:39;72.43;;;26.52;;
67696;SDS011;54486;51.442;6.778;2023-11-21T10:26:06;67.18;;;25.73;;
67696;SDS011;54486;51.442;6.778;2023-11-21T10:28:59;70.45;;;26.55;;
67696;SDS011;54486;51.442;6.778;2023-11-21T10:31:27;65.22;;;25.38;;
67696;SDS011;54486;51.442;6.778;2023-11-21T10:34:17;62.17;;;24.80;;
67696;SDS011;54486;51.442;6.778;2023-11-21T10:36:44;60.13;;;24.40;;
67696;SDS011;54486;51.442;6.778;2023-11-21T10:39:18;67.40;;;24.83;;
67696;SDS011;54486;51.442;6.778;2023-11-21T10:41:46;72.93;;;26.30;;
67696;SDS011;54486;51.442;6.778;2023-11-21T10:44:16;65.43;;;25.35;;
67696;SDS011;54486;51.442;6.778;2023-11-21T10:46:52;64.78;;;24.23;;
67696;SDS011;54486;51.442;6.778;2023-11-21T10:49:26;62.08;;;24.70;;
67696;SDS011;54486;51.442;6.778;2023-11-21T10:51:55;67.85;;;26.40;;
67696;SDS011;54486;51.442;6.778;2023-11-21T10:54:24;69.37;;;26.13;;
67696;SDS011;54486;51.442;6.778;2023-11-21T10:56:59;61.78;;;25.25;;
67696;SDS011;54486;51.442;6.778;2023-11-21T10:59:30;67.85;;;24.90;;
67696;SDS011;54486;51.442;6.778;2023-11-21T11:01:58;68.60;;;27.50;;
67696;SDS011;54486;51.442;6.778;2023-11-21T11:04:29;68.97;;;25.13;;
67696;SDS011;54486;51.442;6.778;2023-11-21T11:06:57;70.20;;;27.20;;
67696;SDS011;54486;51.442;6.778;2023-11-21T11:09:32;63.55;;;25.92;;
67696;SDS011;54486;51.442;6.778;2023-11-21T11:12:03;76.07;;;28.33;;
67696;SDS011;54486;51.442;6.778;2023-11-21T11:14:35;86.10;;;30.23;;
67696;SDS011;54486;51.442;6.778;2023-11-21T11:17:02;87.82;;;31.83;;
67696;SDS011;54486;51.442;6.778;2023-11-21T11:19:33;78.10;;;29.75;;
67696;SDS011;54486;51.442;6.778;2023-11-21T11:27:44;73.47;;;28.88;;
67696;SDS011;54486;51.442;6.778;2023-11-21T11:33:39;68.15;;;26.88;;
67696;SDS011;54486;51.442;6.778;2023-11-21T11:36:18;71.28;;;27.90;;
67696;SDS011;54486;51.442;6.778;2023-11-21T11:38:52;75.25;;;28.15;;
67696;SDS011;54486;51.442;6.778;2023-11-21T11:41:26;69.95;;;27.10;;
67696;SDS011;54486;51.442;6.778;2023-11-21T11:44:00;69.15;;;25.73;;
67696;SDS011;54486;51.442;6.778;2023-11-21T11:46:41;72.35;;;26.58;;
67696;SDS011;54486;51.442;6.778;2023-11-21T11:49:10;67.85;;;27.27;;
67696;SDS011;54486;51.442;6.778;2023-11-21T11:51:38;70.47;;;28.42;;
67696;SDS011;54486;51.442;6.778;2023-11-21T11:54:05;71.88;;;27.85;;
67696;SDS011;54486;51.442;6.778;2023-11-21T11:56:33;76.70;;;30.13;;
67696;SDS011;54486;51.442;6.778;2023-11-21T11:59:03;65.17;;;27.70;;
67696;SDS011;54486;51.442;6.778;2023-11-21T12:01:33;71.22;;;27.45;;
67696;SDS011;54486;51.442;6.778;2023-11-21T12:07:01;67.57;;;27.25;;
67696;SDS011;54486;51.442;6.778;2023-11-21T12:09:30;56.10;;;23.73;;
67696;SDS011;54486;51.442;6.778;2023-11-21T12:11:58;55.72;;;23.20;;
67696;SDS011;54486;51.442;6.778;2023-11-21T12:14:26;54.78;;;22.05;;
67696;SDS011;54486;51.442;6.778;2023-11-21T12:16:54;57.05;;;23.27;;
67696;SDS011;54486;51.442;6.778;2023-11-21T12:19:21;59.55;;;24.42;;
67696;SDS011;54486;51.442;6.778;2023-11-21T12:21:49;58.63;;;24.42;;
67696;SDS011;54486;51.442;6.778;2023-11-21T12:24:16;60.75;;;24.75;;
67696;SDS011;54486;51.442;6.778;2023-11-21T12:26:43;62.53;;;25.20;;
67696;SDS011;54486;51.442;6.778;2023-11-21T12:29:11;67.05;;;26.83;;
67696;SDS011;54486;51.442;6.778;2023-11-21T12:31:39;64.03;;;25.60;;
67696;SDS011;54486;51.442;6.778;2023-11-21T12:34:07;62.57;;;25.37;;
67696;SDS011;54486;51.442;6.778;2023-11-21T12:36:38;46.57;;;17.67;;
67696;SDS011;54486;51.442;6.778;2023-11-21T12:39:06;33.47;;;14.30;;
67696;SDS011;54486;51.442;6.778;2023-11-21T12:41:37;36.23;;;14.67;;
67696;SDS011;54486;51.442;6.778;2023-11-21T12:44:09;38.87;;;15.80;;
67696;SDS011;54486;51.442;6.778;2023-11-21T12:46:40;32.67;;;13.90;;
67696;SDS011;54486;51.442;6.778;2023-11-21T12:49:10;29.40;;;11.80;;
67696;SDS011;54486;51.442;6.778;2023-11-21T12:51:45;27.85;;;11.82;;
67696;SDS011;54486;51.442;6.778;2023-11-21T12:54:13;27.65;;;13.23;;
67696;SDS011;54486;51.442;6.778;2023-11-21T12:56:40;25.95;;;13.05;;
67696;SDS011;54486;51.442;6.778;2023-11-21T12:59:07;27.00;;;11.50;;
67696;SDS011;54486;51.442;6.778;2023-11-21T13:01:42;27.88;;;12.15;;
67696;SDS011;54486;51.442;6.778;2023-11-21T13:04:09;25.85;;;11.82;;
67696;SDS011;54486;51.442;6.778;2023-11-21T13:06:37;26.75;;;12.40;;
67696;SDS011;54486;51.442;6.778;2023-11-21T13:09:08;30.43;;;13.30;;
67696;SDS011;54486;51.442;6.778;2023-11-21T13:11:43;27.10;;;12.63;;
67696;SDS011;54486;51.442;6.778;2023-11-21T13:14:12;26.35;;;11.27;;
67696;SDS011;54486;51.442;6.778;2023-11-21T13:16:39;23.30;;;10.53;;
67696;SDS011;54486;51.442;6.778;2023-11-21T13:19:12;19.98;;;9.27;;
67696;SDS011;54486;51.442;6.778;2023-11-21T13:21:39;18.50;;;9.15;;
67696;SDS011;54486;51.442;6.778;2023-11-21T13:24:07;20.40;;;10.55;;
67696;SDS011;54486;51.442;6.778;2023-11-21T13:26:36;21.30;;;9.50;;
67696;SDS011;54486;51.442;6.778;2023-11-21T13:29:03;19.92;;;10.15;;
67696;SDS011;54486;51.442;6.778;2023-11-21T13:31:31;21.17;;;9.77;;
67696;SDS011;54486;51.442;6.778;2023-11-21T13:33:59;19.75;;;8.68;;
67696;SDS011;54486;51.442;6.778;2023-11-21T13:36:33;20.98;;;9.25;;
67696;SDS011;54486;51.442;6.778;2023-11-21T13:39:02;20.85;;;9.05;;
67696;SDS011;54486;51.442;6.778;2023-11-21T13:41:35;19.58;;;9.55;;
67696;SDS011;54486;51.442;6.778;2023-11-21T13:44:05;21.48;;;8.82;;
67696;SDS011;54486;51.442;6.778;2023-11-21T13:46:44;20.33;;;8.90;;
67696;SDS011;54486;51.442;6.778;2023-11-21T13:49:13;19.75;;;9.43;;
67696;SDS011;54486;51.442;6.778;2023-11-21T13:51:41;23.30;;;9.18;;
67696;SDS011;54486;51.442;6.778;2023-11-21T13:54:12;22.33;;;10.70;;
67696;SDS011;54486;51.442;6.778;2023-11-21T13:56:39;22.25;;;9.95;;
67696;SDS011;54486;51.442;6.778;2023-11-21T13:59:09;21.05;;;9.90;;
67696;SDS011;54486;51.442;6.778;2023-11-21T14:01:46;22.80;;;9.98;;
67696;SDS011;54486;51.442;6.778;2023-11-21T14:04:20;22.00;;;9.45;;
67696;SDS011;54486;51.442;6.778;2023-11-21T14:07:01;20.48;;;9.85;;
67696;SDS011;54486;51.442;6.778;2023-11-21T14:09:47;22.23;;;9.88;;
67696;SDS011;54486;51.442;6.778;2023-11-21T14:12:16;22.70;;;10.30;;
67696;SDS011;54486;51.442;6.778;2023-11-21T14:14:43;23.42;;;10.65;;
67696;SDS011;54486;51.442;6.778;2023-11-21T14:17:11;21.80;;;10.07;;
67696;SDS011;54486;51.442;6.778;2023-11-21T14:19:38;21.97;;;9.50;;
67696;SDS011;54486;51.442;6.778;2023-11-21T14:22:10;22.13;;;10.23;;
67696;SDS011;54486;51.442;6.778;2023-11-21T14:24:39;23.10;;;10.38;;
67696;SDS011;54486;51.442;6.778;2023-11-21T14:27:13;21.83;;;10.82;;
67696;SDS011;54486;51.442;6.778;2023-11-21T14:29:42;22.60;;;10.48;;
67696;SDS011;54486;51.442;6.778;2023-11-21T14:32:11;23.42;;;10.55;;
67696;SDS011;54486;51.442;6.778;2023-11-21T14:34:39;22.42;;;10.75;;
67696;SDS011;54486;51.442;6.778;2023-11-21T14:37:07;24.85;;;10.25;;
67696;SDS011;54486;51.442;6.778;2023-11-21T14:39:34;23.30;;;10.18;;
67696;SDS011;54486;51.442;6.778;2023-11-21T14:42:07;21.73;;;10.20;;
67696;SDS011;54486;51.442;6.778;2023-11-21T14:44:35;23.77;;;11.33;;